createdAt,value
2018-08-09T00:01:04.443Z,99975.00
2018-08-09T00:03:34.461Z,99973.00
2018-08-09T00:06:05.665Z,99983.00
2018-08-09T00:08:37.790Z,99980.00
2018-08-09T00:11:10.169Z,99987.00
2018-08-09T00:13:53.041Z,99985.00
2018-08-09T00:16:26.353Z,99978.00
2018-08-09T00:18:57.561Z,99981.00
2018-08-09T00:21:28.110Z,99980.00
2018-08-09T00:31:04.867Z,99988.00
2018-08-09T00:33:36.789Z,99977.00
2018-08-09T00:36:09.180Z,99984.00
2018-08-09T00:38:40.889Z,99970.00
2018-08-09T00:41:11.738Z,99972.00
2018-08-09T00:43:42.580Z,99958.00
2018-08-09T00:46:14.950Z,99959.00
2018-08-09T00:48:45.339Z,99963.00
2018-08-09T00:51:16.918Z,99959.00
2018-08-09T00:53:47.081Z,99961.00
2018-08-09T00:56:17.933Z,99951.00
2018-08-09T00:58:49.417Z,99962.00
2018-08-09T01:01:21.151Z,99966.00
2018-08-09T01:03:52.807Z,99968.00
2018-08-09T01:06:23.936Z,99960.00
2018-08-09T01:09:00.683Z,99959.00
2018-08-09T01:11:31.258Z,99965.00
2018-08-09T01:14:01.952Z,99959.00
2018-08-09T01:16:34.103Z,99961.00
2018-08-09T01:19:04.593Z,99958.00
2018-08-09T01:21:36.473Z,99957.00
2018-08-09T01:24:06.693Z,99959.00
2018-08-09T01:26:38.832Z,99960.00
2018-08-09T01:29:11.493Z,99960.00
2018-08-09T01:31:43.357Z,99963.00
2018-08-09T01:34:15.003Z,99956.00
2018-08-09T01:36:46.305Z,99960.00
2018-08-09T01:39:17.084Z,99957.00
2018-08-09T01:42:04.657Z,99957.00
2018-08-09T01:44:35.674Z,99961.00
2018-08-09T01:47:06.931Z,99959.00
2018-08-09T01:49:38.407Z,99961.00
2018-08-09T01:52:08.858Z,99966.00
2018-08-09T01:54:40.172Z,99959.00
2018-08-09T01:57:14.393Z,99950.00
2018-08-09T01:59:44.790Z,99960.00
2018-08-09T02:02:15.539Z,99951.00
2018-08-09T02:04:48.056Z,99953.00
2018-08-09T02:07:20.771Z,99945.00
2018-08-09T02:09:52.308Z,99950.00
2018-08-09T02:12:24.253Z,99944.00
2018-08-09T02:14:55.935Z,99948.00
2018-08-09T02:17:26.012Z,99961.00
2018-08-09T02:19:57.822Z,99943.00
2018-08-09T02:22:28.575Z,99942.00
2018-08-09T02:24:59.452Z,99941.00
2018-08-09T02:27:30.008Z,99937.00
2018-08-09T02:30:01.887Z,99944.00
2018-08-09T02:32:32.529Z,99933.00
2018-08-09T02:35:03.754Z,99949.00
2018-08-09T02:37:34.305Z,99945.00
2018-08-09T02:40:06.202Z,99943.00
2018-08-09T02:42:36.397Z,99949.00
2018-08-09T02:45:07.458Z,99950.00
2018-08-09T02:47:38.878Z,99953.00
2018-08-09T02:50:10.212Z,99956.00
2018-08-09T02:52:40.830Z,99953.00
2018-08-09T02:55:12.293Z,99945.00
2018-08-09T02:57:43.721Z,99944.00
2018-08-09T03:00:14.510Z,99946.00
2018-08-09T03:02:49.544Z,99939.00
2018-08-09T03:05:21.763Z,99931.00
2018-08-09T03:07:53.188Z,99930.00
2018-08-09T03:10:24.368Z,99927.00
2018-08-09T03:12:54.828Z,99935.00
2018-08-09T03:15:26.057Z,99939.00
2018-08-09T03:17:57.229Z,99944.00
2018-08-09T03:20:27.734Z,99952.00
2018-08-09T03:22:58.305Z,99951.00
2018-08-09T03:25:29.065Z,99947.00
2018-08-09T03:27:59.749Z,99953.00
2018-08-09T03:30:30.993Z,99954.00
2018-08-09T03:33:03.324Z,99947.00
2018-08-09T03:35:34.618Z,99951.00
2018-08-09T03:38:04.798Z,99943.00
2018-08-09T03:40:35.598Z,99943.00
2018-08-09T03:43:06.188Z,99943.00
2018-08-09T03:45:37.206Z,99943.00
2018-08-09T03:48:09.310Z,99946.00
2018-08-09T03:50:42.207Z,99954.00
2018-08-09T03:53:13.133Z,99960.00
2018-08-09T03:55:44.642Z,99965.00
2018-08-09T03:58:17.346Z,99965.00
2018-08-09T04:00:49.312Z,99945.00
2018-08-09T04:03:19.999Z,99961.00
2018-08-09T04:05:50.643Z,99965.00
2018-08-09T04:08:21.450Z,99969.00
2018-08-09T04:10:53.873Z,99955.00
2018-08-09T04:13:24.221Z,99967.00
2018-08-09T04:15:55.877Z,99972.00
2018-08-09T04:18:26.590Z,99968.00
2018-08-09T04:20:57.574Z,99964.00
2018-08-09T04:23:28.659Z,99966.00
2018-08-09T04:25:58.940Z,99976.00
2018-08-09T04:28:34.034Z,99970.00
2018-08-09T04:31:05.243Z,99962.00
2018-08-09T04:33:36.250Z,99963.00
2018-08-09T04:36:07.577Z,99960.00
2018-08-09T04:38:38.243Z,99956.00
2018-08-09T04:41:09.264Z,99952.00
2018-08-09T04:43:40.489Z,99955.00
2018-08-09T04:46:10.798Z,99950.00
2018-08-09T04:48:40.981Z,99953.00
2018-08-09T04:51:11.756Z,99969.00
2018-08-09T04:53:42.822Z,99969.00
2018-08-09T04:56:15.481Z,99976.00
2018-08-09T04:58:46.207Z,99975.00
2018-08-09T05:01:16.490Z,99974.00
2018-08-09T05:03:46.566Z,99979.00
2018-08-09T05:06:18.402Z,99985.00
2018-08-09T05:08:50.717Z,99972.00
2018-08-09T05:11:21.125Z,99975.00
2018-08-09T05:13:51.559Z,99977.00
2018-08-09T05:16:28.046Z,99988.00
2018-08-09T05:18:58.531Z,99978.00
2018-08-09T05:21:29.777Z,99981.00
2018-08-09T05:24:00.633Z,99976.00
2018-08-09T05:26:31.686Z,99989.00
2018-08-09T05:29:03.454Z,99982.00
2018-08-09T05:31:35.527Z,99977.00
2018-08-09T05:34:06.965Z,99969.00
2018-08-09T05:36:37.597Z,99955.00
2018-08-09T05:39:11.466Z,99948.00
2018-08-09T05:41:42.312Z,99947.00
2018-08-09T05:44:12.659Z,99938.00
2018-08-09T05:46:43.569Z,99947.00
2018-08-09T05:49:14.625Z,99962.00
2018-08-09T05:51:44.827Z,99966.00
2018-08-09T05:54:16.604Z,99972.00
2018-08-09T05:56:48.181Z,99966.00
2018-08-09T05:59:18.285Z,99970.00
2018-08-09T06:01:55.631Z,99971.00
2018-08-09T06:04:28.604Z,99976.00
2018-08-09T06:06:59.048Z,99967.00
2018-08-09T06:09:29.116Z,99975.00
2018-08-09T06:11:59.825Z,99968.00
2018-08-09T06:14:31.103Z,99964.00
2018-08-09T06:17:03.225Z,99961.00
2018-08-09T06:19:36.741Z,99971.00
2018-08-09T06:22:08.063Z,99979.00
2018-08-09T06:24:39.285Z,99979.00
2018-08-09T06:27:11.606Z,99981.00
2018-08-09T06:29:41.834Z,99968.00
2018-08-09T06:32:15.725Z,99963.00
2018-08-09T06:34:45.762Z,99955.00
2018-08-09T06:37:17.555Z,99961.00
2018-08-09T06:39:48.185Z,99959.00
2018-08-09T06:42:19.137Z,99945.00
2018-08-09T06:44:50.979Z,99961.00
2018-08-09T06:47:21.905Z,99960.00
2018-08-09T06:49:53.860Z,99969.00
2018-08-09T06:52:24.873Z,99957.00
2018-08-09T06:54:54.958Z,99964.00
2018-08-09T06:57:26.131Z,99956.00
2018-08-09T06:59:57.743Z,99962.00
2018-08-09T07:02:29.193Z,99966.00
2018-08-09T07:04:59.853Z,99970.00
2018-08-09T07:07:30.932Z,99973.00
2018-08-09T07:10:01.773Z,99965.00
2018-08-09T07:12:33.385Z,99962.00
2018-08-09T07:15:04.691Z,99965.00
2018-08-09T07:17:36.778Z,99980.00
2018-08-09T07:20:08.809Z,99971.00
2018-08-09T07:22:41.917Z,99963.00
2018-08-09T07:25:12.514Z,99979.00
2018-08-09T07:27:45.628Z,99987.00
2018-08-09T07:30:15.897Z,99973.00
2018-08-09T07:32:47.024Z,99989.00
2018-08-09T07:35:18.980Z,99973.00
2018-08-09T07:37:49.720Z,99983.00
2018-08-09T07:40:22.013Z,99980.00
2018-08-09T07:42:52.509Z,99986.00
2018-08-09T07:45:26.509Z,99976.00
2018-08-09T07:47:56.601Z,99986.00
2018-08-09T07:50:28.782Z,99969.00
2018-08-09T07:53:00.502Z,99967.00
2018-08-09T07:55:31.284Z,99972.00
2018-08-09T07:58:02.627Z,99967.00
2018-08-09T08:00:33.474Z,99965.00
2018-08-09T08:03:03.980Z,99963.00
2018-08-09T08:05:34.085Z,99962.00
2018-08-09T08:08:09.344Z,99959.00
2018-08-09T08:10:39.881Z,99961.00
2018-08-09T08:13:11.954Z,99963.00
2018-08-09T08:15:45.609Z,99966.00
2018-08-09T08:18:16.241Z,99963.00
2018-08-09T08:20:46.363Z,99966.00
2018-08-09T08:23:17.330Z,99975.00
2018-08-09T08:25:48.241Z,99970.00
2018-08-09T08:28:19.925Z,99988.00
2018-08-09T08:30:50.744Z,99974.00
2018-08-09T08:33:22.201Z,99976.00
2018-08-09T08:35:52.931Z,99970.00
2018-08-09T08:38:24.662Z,99982.00
2018-08-09T08:40:55.105Z,99971.00
2018-08-09T08:43:25.895Z,99973.00
2018-08-09T08:45:56.262Z,99972.00
2018-08-09T08:48:30.549Z,99958.00
2018-08-09T08:51:05.977Z,99955.00
2018-08-09T08:53:37.238Z,99957.00
2018-08-09T08:56:08.873Z,99957.00
2018-08-09T08:58:39.065Z,99960.00
2018-08-09T09:01:10.053Z,99964.00
2018-08-09T09:03:40.226Z,99971.00
2018-08-09T09:06:10.740Z,99968.00
2018-08-09T09:08:41.936Z,99967.00
2018-08-09T09:11:12.052Z,99957.00
2018-08-09T09:13:44.149Z,99961.00
2018-08-09T09:16:14.749Z,99961.00
2018-08-09T09:18:46.405Z,99961.00
2018-08-09T09:21:16.625Z,99950.00
2018-08-09T09:23:47.790Z,99954.00
2018-08-09T09:26:18.173Z,99953.00
2018-08-09T09:28:48.930Z,99968.00
2018-08-09T09:31:19.235Z,99962.00
2018-08-09T09:33:49.709Z,99959.00
2018-08-09T09:36:20.001Z,99965.00
2018-08-09T09:38:50.630Z,99958.00
2018-08-09T09:41:20.829Z,99962.00
2018-08-09T09:43:51.213Z,99962.00
2018-08-09T09:46:21.317Z,99956.00
2018-08-09T09:48:51.714Z,99965.00
2018-08-09T09:51:22.752Z,99963.00
2018-08-09T09:53:53.698Z,99961.00
2018-08-09T09:56:24.025Z,99959.00
2018-08-09T09:58:55.025Z,99958.00
2018-08-09T10:01:30.713Z,99973.00
2018-08-09T10:04:01.338Z,99975.00
2018-08-09T10:06:33.952Z,99962.00
2018-08-09T10:09:06.526Z,99964.00
2018-08-09T10:11:37.056Z,99964.00
2018-08-09T10:14:07.995Z,99975.00
2018-08-09T10:16:39.042Z,99965.00
2018-08-09T10:19:10.278Z,99984.00
2018-08-09T10:21:40.372Z,99992.00
2018-08-09T10:24:12.140Z,99969.00
2018-08-09T10:26:50.258Z,99974.00
2018-08-09T10:29:20.282Z,99986.00
2018-08-09T10:31:50.915Z,99988.00
2018-08-09T10:34:21.189Z,99992.00
2018-08-09T10:36:52.375Z,99979.00
2018-08-09T10:39:23.092Z,99981.00
2018-08-09T10:41:53.217Z,99975.00
2018-08-09T10:44:23.838Z,99981.00
2018-08-09T10:46:53.871Z,99982.00
2018-08-09T10:49:25.233Z,99972.00
2018-08-09T10:51:56.269Z,99970.00
2018-08-09T10:54:27.620Z,99959.00
2018-08-09T10:56:57.999Z,99968.00
2018-08-09T10:59:29.167Z,99963.00
2018-08-09T11:02:01.475Z,99958.00
2018-08-09T11:04:33.014Z,99966.00
2018-08-09T11:07:04.359Z,99964.00
2018-08-09T11:09:35.592Z,99966.00
2018-08-09T11:12:07.562Z,99967.00
2018-08-09T11:14:37.945Z,99973.00
2018-08-09T11:17:08.839Z,99975.00
2018-08-09T11:19:41.087Z,99980.00
2018-08-09T11:22:11.374Z,99976.00
2018-08-09T11:24:43.868Z,99986.00
2018-08-09T11:27:14.986Z,99983.00
2018-08-09T11:29:47.885Z,99976.00
2018-08-09T11:32:18.107Z,99969.00
2018-08-09T11:34:48.398Z,99963.00
2018-08-09T11:37:19.344Z,99961.00
2018-08-09T11:39:50.786Z,99962.00
2018-08-09T11:42:21.259Z,99957.00
2018-08-09T11:44:51.498Z,99961.00
2018-08-09T11:47:22.507Z,99950.00
2018-08-09T11:49:52.514Z,99960.00
2018-08-09T11:52:23.921Z,99954.00
2018-08-09T11:54:56.169Z,99965.00
2018-08-09T11:57:27.276Z,99969.00
2018-08-09T11:59:58.781Z,99960.00
2018-08-09T12:02:29.423Z,99959.00
2018-08-09T12:05:00.637Z,99962.00
2018-08-09T12:07:31.971Z,99972.00
2018-08-09T12:10:02.254Z,99970.00
2018-08-09T12:12:32.973Z,99963.00
2018-08-09T12:15:06.218Z,99972.00
2018-08-09T12:17:36.840Z,99973.00
2018-08-09T12:20:09.122Z,99982.00
2018-08-09T12:22:40.398Z,99968.00
2018-08-09T12:25:14.178Z,99976.00
2018-08-09T12:27:44.291Z,99974.00
2018-08-09T12:30:16.473Z,99967.00
2018-08-09T12:32:47.550Z,99971.00
2018-08-09T12:35:19.454Z,99965.00
2018-08-09T12:37:50.084Z,99968.00
2018-08-09T12:40:20.493Z,99971.00
2018-08-09T12:42:51.623Z,99969.00
2018-08-09T12:45:22.781Z,99975.00
2018-08-09T12:47:53.811Z,99977.00
2018-08-09T12:50:25.522Z,99985.00
2018-08-09T12:52:57.199Z,99998.00
2018-08-09T12:55:27.625Z,99992.00
2018-08-09T12:57:58.000Z,100001.00
2018-08-09T13:00:29.550Z,100003.00
2018-08-09T13:03:00.445Z,99997.00
2018-08-09T13:05:30.758Z,99987.00
2018-08-09T13:08:01.608Z,99989.00
2018-08-09T13:10:33.103Z,99983.00
2018-08-09T13:13:04.284Z,99982.00
2018-08-09T13:15:35.136Z,99974.00
2018-08-09T13:18:05.678Z,99972.00
2018-08-09T13:20:37.091Z,99971.00
2018-08-09T13:23:08.100Z,99971.00
2018-08-09T13:25:39.586Z,99965.00
2018-08-09T13:28:14.091Z,99966.00
2018-08-09T13:30:45.680Z,99964.00
2018-08-09T13:33:17.109Z,99965.00
2018-08-09T13:35:47.496Z,99971.00
2018-08-09T13:38:18.298Z,99968.00
2018-08-09T13:40:49.965Z,99967.00
2018-08-09T13:43:20.401Z,99968.00
2018-08-09T13:45:51.348Z,99972.00
2018-08-09T13:48:22.598Z,99968.00
2018-08-09T13:50:56.077Z,99970.00
2018-08-09T13:53:26.993Z,99969.00
2018-08-09T13:55:58.379Z,99974.00
2018-08-09T13:58:28.886Z,99976.00
2018-08-09T14:01:02.144Z,99973.00
2018-08-09T14:03:32.798Z,99970.00
2018-08-09T14:06:04.595Z,99965.00
2018-08-09T14:08:35.144Z,99966.00
2018-08-09T14:11:07.200Z,99967.00
2018-08-09T14:13:41.625Z,99963.00
2018-08-09T14:16:12.595Z,99967.00
2018-08-09T14:18:44.082Z,99965.00
2018-08-09T14:21:15.874Z,99957.00
2018-08-09T14:23:47.894Z,99960.00
2018-08-09T14:26:19.223Z,99957.00
2018-08-09T14:28:50.713Z,99947.00
2018-08-09T14:31:21.200Z,99942.00
2018-08-09T14:33:52.022Z,99926.00
2018-08-09T14:36:22.281Z,99932.00
2018-08-09T14:38:57.654Z,99927.00
2018-08-09T14:41:28.933Z,99915.00
2018-08-09T14:43:59.550Z,99922.00
2018-08-09T14:46:31.721Z,99917.00
2018-08-09T14:49:02.224Z,99917.00
2018-08-09T14:51:33.811Z,99920.00
2018-08-09T14:54:04.389Z,99918.00
2018-08-09T14:56:36.486Z,99907.00
2018-08-09T14:59:07.813Z,99903.00
2018-08-09T15:01:37.945Z,99912.00
2018-08-09T15:04:09.284Z,99910.00
2018-08-09T15:06:43.710Z,99916.00
2018-08-09T15:09:26.104Z,99929.00
2018-08-09T15:11:58.988Z,99924.00
2018-08-09T15:14:30.854Z,99928.00
2018-08-09T15:17:02.661Z,99936.00
2018-08-09T15:19:34.773Z,99925.00
2018-08-09T15:22:06.679Z,99922.00
2018-08-09T15:24:38.332Z,99927.00
2018-08-09T15:27:08.694Z,99926.00
2018-08-09T15:29:39.960Z,99923.00
2018-08-09T15:32:11.885Z,99919.00
2018-08-09T15:34:42.282Z,99922.00
2018-08-09T15:37:13.380Z,99925.00
2018-08-09T15:39:44.769Z,99923.00
2018-08-09T15:42:15.170Z,99920.00
2018-08-09T15:44:45.426Z,99925.00
2018-08-09T15:47:16.107Z,99925.00
2018-08-09T15:49:46.837Z,99919.00
2018-08-09T15:52:19.484Z,99915.00
2018-08-09T15:54:49.965Z,99922.00
2018-08-09T15:57:20.538Z,99924.00
2018-08-09T15:59:51.721Z,99919.00
2018-08-09T16:02:26.664Z,99909.00
2018-08-09T16:04:57.777Z,99918.00
2018-08-09T16:07:28.948Z,99910.00
2018-08-09T16:09:59.843Z,99911.00
2018-08-09T16:12:30.233Z,99920.00
2018-08-09T16:15:01.078Z,99913.00
2018-08-09T16:17:32.777Z,99911.00
2018-08-09T16:20:05.583Z,99912.00
2018-08-09T16:22:38.827Z,99908.00
2018-08-09T16:25:13.249Z,99910.00
2018-08-09T16:27:44.513Z,99905.00
2018-08-09T16:30:23.120Z,99906.00
2018-08-09T16:32:54.083Z,99895.00
2018-08-09T16:35:24.712Z,99914.00
2018-08-09T16:37:55.232Z,99912.00
2018-08-09T16:40:27.417Z,99909.00
2018-08-09T16:42:58.641Z,99907.00
2018-08-09T16:45:29.157Z,99912.00
2018-08-09T16:47:59.962Z,99912.00
2018-08-09T16:50:30.627Z,99909.00
2018-08-09T16:53:01.787Z,99908.00
2018-08-09T16:55:32.130Z,99912.00
2018-08-09T16:58:02.552Z,99915.00
2018-08-09T17:00:33.444Z,99914.00
2018-08-09T17:03:03.723Z,99920.00
2018-08-09T17:05:34.106Z,99922.00
2018-08-09T17:08:04.684Z,99918.00
2018-08-09T17:10:34.931Z,99916.00
2018-08-09T17:13:05.247Z,99913.00
2018-08-09T17:15:35.417Z,99923.00
2018-08-09T17:18:05.754Z,99931.00
2018-08-09T17:20:37.375Z,99922.00
2018-08-09T17:23:08.825Z,99917.00
2018-08-09T17:25:39.160Z,99921.00
2018-08-09T17:28:09.934Z,99929.00
2018-08-09T17:30:40.295Z,99947.00
2018-08-09T17:33:11.918Z,99944.00
2018-08-09T17:35:42.996Z,99956.00
2018-08-09T17:38:13.447Z,99963.00
2018-08-09T17:40:43.730Z,99971.00
2018-08-09T17:43:16.596Z,99976.00
2018-08-09T17:45:48.091Z,99979.00
2018-08-09T17:48:19.053Z,99974.00
2018-08-09T17:50:49.538Z,99986.00
2018-08-09T17:53:21.496Z,99986.00
2018-08-09T17:55:53.447Z,99982.00
2018-08-09T17:58:23.757Z,99989.00
2018-08-09T18:00:55.652Z,99979.00
2018-08-09T18:03:27.567Z,99991.00
2018-08-09T18:05:58.051Z,99979.00
2018-08-09T18:08:28.962Z,99984.00
2018-08-09T18:10:59.374Z,99987.00
2018-08-09T18:13:31.699Z,99989.00
2018-08-09T18:16:02.138Z,99979.00
2018-08-09T18:18:32.404Z,99980.00
2018-08-09T18:21:02.812Z,99976.00
2018-08-09T18:23:33.202Z,99979.00
2018-08-09T18:26:05.058Z,99982.00
2018-08-09T18:28:35.157Z,99988.00
2018-08-09T18:31:05.517Z,99984.00
2018-08-09T18:33:36.082Z,99985.00
2018-08-09T18:36:13.209Z,99992.00
2018-08-09T18:38:44.547Z,99996.00
2018-08-09T18:41:16.021Z,99989.00
2018-08-09T18:43:47.175Z,99994.00
2018-08-09T18:46:18.807Z,99996.00
2018-08-09T18:48:48.937Z,100001.00
2018-08-09T18:51:20.393Z,100013.00
2018-08-09T18:53:51.001Z,100011.00
2018-08-09T18:56:21.372Z,100016.00
2018-08-09T18:58:51.754Z,100018.00
2018-08-09T19:01:22.409Z,100019.00
2018-08-09T19:03:52.801Z,100021.00
2018-08-09T19:06:23.738Z,100030.00
2018-08-09T19:08:54.337Z,100037.00
2018-08-09T19:11:27.470Z,100044.00
2018-08-09T19:13:58.564Z,100052.00
2018-08-09T19:16:29.501Z,100050.00
2018-08-09T19:19:00.875Z,100049.00
2018-08-09T19:21:31.318Z,100059.00
2018-08-09T19:24:02.696Z,100054.00
2018-08-09T19:26:34.162Z,100056.00
2018-08-09T19:29:05.391Z,100069.00
2018-08-09T19:31:37.090Z,100080.00
2018-08-09T19:34:07.517Z,100082.00
2018-08-09T19:36:38.048Z,100074.00
2018-08-09T19:39:13.897Z,100084.00
2018-08-09T19:41:45.204Z,100084.00
2018-08-09T19:44:16.947Z,100081.00
2018-08-09T19:46:47.317Z,100090.00
2018-08-09T19:49:18.764Z,100088.00
2018-08-09T19:51:49.171Z,100090.00
2018-08-09T19:54:20.027Z,100089.00
2018-08-09T19:56:51.023Z,100097.00
2018-08-09T19:59:23.181Z,100102.00
2018-08-09T20:01:55.310Z,100102.00
2018-08-09T20:04:25.778Z,100113.00
2018-08-09T20:06:56.747Z,100118.00
2018-08-09T20:09:28.911Z,100122.00
2018-08-09T20:11:59.547Z,100120.00
2018-08-09T20:14:31.218Z,100117.00
2018-08-09T20:17:02.879Z,100119.00
2018-08-09T20:19:34.254Z,100118.00
2018-08-09T20:22:06.171Z,100118.00
2018-08-09T20:24:37.153Z,100122.00
2018-08-09T20:27:08.389Z,100114.00
2018-08-09T20:29:38.686Z,100109.00
2018-08-09T20:32:08.906Z,100114.00
2018-08-09T20:34:39.263Z,100109.00
2018-08-09T20:37:10.367Z,100119.00
2018-08-09T20:39:41.269Z,100122.00
2018-08-09T20:42:11.694Z,100117.00
2018-08-09T20:44:42.140Z,100131.00
2018-08-09T20:47:13.977Z,100114.00
2018-08-09T20:49:44.047Z,100131.00
2018-08-09T20:52:14.907Z,100135.00
2018-08-09T20:54:45.075Z,100130.00
2018-08-09T20:57:16.574Z,100131.00
2018-08-09T20:59:47.039Z,100134.00
2018-08-09T21:02:17.639Z,100131.00
2018-08-09T21:04:48.388Z,100124.00
2018-08-09T21:07:19.049Z,100124.00
2018-08-09T21:09:49.753Z,100125.00
2018-08-09T21:12:21.428Z,100137.00
2018-08-09T21:14:51.683Z,100132.00
2018-08-09T21:17:22.197Z,100142.00
2018-08-09T21:19:54.373Z,100146.00
2018-08-09T21:22:25.196Z,100152.00
2018-08-09T21:24:57.524Z,100147.00
2018-08-09T21:27:29.369Z,100145.00
2018-08-09T21:29:59.649Z,100139.00
2018-08-09T21:32:30.174Z,100144.00
2018-08-09T21:35:00.445Z,100142.00
2018-08-09T21:37:31.342Z,100143.00
2018-08-09T21:40:01.465Z,100154.00
2018-08-09T21:42:32.389Z,100160.00
2018-08-09T21:45:03.618Z,100150.00
2018-08-09T21:47:33.916Z,100161.00
2018-08-09T21:50:05.735Z,100160.00
2018-08-09T21:52:36.256Z,100161.00
2018-08-09T21:55:10.613Z,100165.00
2018-08-09T21:57:41.254Z,100160.00
2018-08-09T22:00:28.155Z,100160.00
2018-08-09T22:02:59.716Z,100167.00
2018-08-09T22:05:35.213Z,100167.00
2018-08-09T22:10:16.698Z,100176.00
2018-08-09T22:12:53.660Z,100181.00
2018-08-09T22:15:31.019Z,100184.00
2018-08-09T22:18:07.154Z,100186.00
2018-08-09T22:20:42.549Z,100195.00
2018-08-09T22:23:13.296Z,100201.00
2018-08-09T22:25:44.722Z,100188.00
2018-08-09T22:28:16.221Z,100202.00
2018-08-09T22:30:48.756Z,100201.00
2018-08-09T22:33:19.724Z,100205.00
2018-08-09T22:35:50.400Z,100201.00
2018-08-09T22:38:20.538Z,100204.00
2018-08-09T22:40:51.488Z,100206.00
2018-08-09T22:43:21.998Z,100209.00
2018-08-09T22:45:52.927Z,100211.00
2018-08-09T22:48:23.305Z,100204.00
2018-08-09T22:50:53.509Z,100209.00
2018-08-09T22:53:23.802Z,100214.00
2018-08-09T22:55:54.661Z,100205.00
2018-08-09T22:58:25.561Z,100200.00
2018-08-09T23:00:55.633Z,100214.00
2018-08-09T23:03:26.454Z,100219.00
2018-08-09T23:05:56.986Z,100219.00
2018-08-09T23:08:27.374Z,100226.00
2018-08-09T23:10:57.749Z,100210.00
2018-08-09T23:13:28.109Z,100236.00
2018-08-09T23:15:58.996Z,100227.00
2018-08-09T23:18:30.578Z,100224.00
2018-08-09T23:21:00.996Z,100211.00
2018-08-09T23:23:31.422Z,100226.00
2018-08-09T23:26:02.381Z,100229.00
2018-08-09T23:28:32.718Z,100225.00
2018-08-09T23:31:03.354Z,100228.00
2018-08-09T23:33:35.333Z,100241.00
2018-08-09T23:36:06.547Z,100243.00
2018-08-09T23:38:37.647Z,100242.00
2018-08-09T23:41:08.274Z,100241.00
2018-08-09T23:43:38.805Z,100235.00
2018-08-09T23:46:09.521Z,100247.00
2018-08-09T23:48:39.738Z,100244.00
2018-08-09T23:51:12.198Z,100246.00
2018-08-09T23:53:44.715Z,100244.00
2018-08-09T23:56:15.957Z,100249.00
2018-08-09T23:58:47.182Z,100252.00
